Time;durP1;ratioP1;P1;durP2;ratioP2;P2;SDS_P1;SDS_P2;PMS_P1;PMS_P2;Temp;Humidity;BMP_temperature;BMP_pressure;BME280_temperature;BME280_humidity;BME280_pressure;Samples;Min_cycle;Max_cycle;Signal;HPM_P1;HPM_P2
2021/04/28 00:01:04;;;;;;;9.13;4.33;;;5.70;82.80;;;;;;4976708;28;20190;-86
2021/04/28 00:03:30;;;;;;;8.87;5.00;;;5.70;83.00;;;;;;4959212;28;20186;-86
2021/04/28 00:05:55;;;;;;;7.93;4.80;;;5.60;83.20;;;;;;4958498;28;20178;-86
2021/04/28 00:08:21;;;;;;;8.53;4.80;;;5.60;83.30;;;;;;4958075;28;20202;-86
2021/04/28 00:10:47;;;;;;;8.13;5.17;;;5.50;83.20;;;;;;4958611;28;20229;-86
2021/04/28 00:13:16;;;;;;;7.43;4.33;;;5.50;83.40;;;;;;4958451;28;20280;-86
2021/04/28 00:15:45;;;;;;;8.67;4.93;;;5.40;83.60;;;;;;4959041;28;20630;-86
2021/04/28 00:18:12;;;;;;;7.10;4.77;;;5.40;83.70;;;;;;4958738;28;20430;-86
2021/04/28 00:20:41;;;;;;;8.83;5.00;;;5.40;83.70;;;;;;4958597;28;20418;-86
2021/04/28 00:23:08;;;;;;;9.50;4.80;;;5.40;84.20;;;;;;4957747;28;20430;-86
2021/04/28 00:25:34;;;;;;;9.73;5.10;;;5.40;84.10;;;;;;4957816;28;20810;-85
2021/04/28 00:28:00;;;;;;;9.47;4.63;;;5.40;84.00;;;;;;4957968;28;20481;-86
2021/04/28 00:30:26;;;;;;;7.13;4.30;;;5.40;84.10;;;;;;4957492;28;20418;-85
2021/04/28 00:32:53;;;;;;;7.50;4.60;;;5.30;84.00;;;;;;4957257;28;20437;-86
2021/04/28 00:35:21;;;;;;;11.93;4.53;;;5.30;84.30;;;;;;4957072;28;20438;-86
2021/04/28 00:37:47;;;;;;;13.23;5.70;;;5.20;84.30;;;;;;4957449;28;20422;-86
2021/04/28 00:40:26;;;;;;;11.33;4.67;;;5.20;84.30;;;;;;4957968;28;20418;-85
2021/04/28 00:42:52;;;;;;;13.50;4.80;;;5.20;84.50;;;;;;4957939;28;20425;-86
2021/04/28 00:45:21;;;;;;;12.07;5.40;;;5.20;84.60;;;;;;4957356;28;20600;-85
2021/04/28 00:47:47;;;;;;;10.37;4.90;;;5.20;84.80;;;;;;4957394;28;20884;-86
2021/04/28 00:50:21;;;;;;;7.10;4.50;;;5.10;84.80;;;;;;4957798;28;20479;-86
2021/04/28 00:52:47;;;;;;;8.50;5.00;;;5.10;84.80;;;;;;4957981;28;20454;-86
2021/04/28 00:55:14;;;;;;;10.60;5.10;;;5.10;84.90;;;;;;4957846;28;20438;-86
2021/04/28 00:57:40;;;;;;;8.53;4.73;;;5.10;85.10;;;;;;4957821;28;20480;-86
2021/04/28 01:00:09;;;;;;;7.83;5.20;;;5.10;84.90;;;;;;4958812;28;20422;-86
2021/04/28 01:02:34;;;;;;;11.60;4.80;;;5.10;85.00;;;;;;4959109;28;20449;-86
2021/04/28 01:05:03;;;;;;;8.50;4.60;;;5.00;85.00;;;;;;4958592;28;20438;-86
2021/04/28 01:07:29;;;;;;;7.87;4.30;;;5.00;85.10;;;;;;4958409;28;20293;-86
2021/04/28 01:09:55;;;;;;;6.67;4.40;;;5.00;85.40;;;;;;4957875;28;20988;-85
2021/04/28 01:12:21;;;;;;;7.60;4.67;;;5.00;85.50;;;;;;4975702;28;20298;-86
2021/04/28 01:14:48;;;;;;;8.80;5.27;;;4.90;85.70;;;;;;4958416;28;20291;-86
2021/04/28 01:17:14;;;;;;;8.27;4.90;;;4.90;85.60;;;;;;4958658;28;20424;-86
2021/04/28 01:19:40;;;;;;;9.70;5.00;;;4.90;85.60;;;;;;4958500;28;20414;-86
2021/04/28 01:22:06;;;;;;;8.57;5.40;;;4.90;85.70;;;;;;4978352;28;20179;-86
2021/04/28 01:24:31;;;;;;;10.40;6.13;;;4.90;85.60;;;;;;4961605;28;20488;-86
2021/04/28 01:27:02;;;;;;;9.00;5.15;;;4.80;85.60;;;;;;4961131;28;20801;-85
2021/04/28 01:29:30;;;;;;;11.87;5.47;;;4.80;85.50;;;;;;4961395;28;20212;-86
2021/04/28 01:31:58;;;;;;;11.93;5.30;;;4.80;85.60;;;;;;4960762;28;20422;-86
2021/04/28 01:34:25;;;;;;;5.83;4.53;;;4.80;85.50;;;;;;4961285;28;20996;-86
2021/04/28 01:36:53;;;;;;;10.03;5.83;;;4.80;85.50;;;;;;4960910;28;20425;-86
2021/04/28 01:39:19;;;;;;;11.90;4.50;;;4.80;85.50;;;;;;4960823;28;20425;-85
2021/04/28 01:41:47;;;;;;;8.50;4.50;;;4.80;85.60;;;;;;4961081;28;20504;-86
2021/04/28 01:44:17;;;;;;;8.90;5.63;;;4.70;86.00;;;;;;4977749;28;20484;-88
2021/04/28 01:46:44;;;;;;;11.43;4.70;;;4.70;85.90;;;;;;4960890;28;20430;-86
2021/04/28 01:49:11;;;;;;;7.27;4.57;;;4.70;86.10;;;;;;4960057;28;20991;-86
2021/04/28 01:51:38;;;;;;;17.60;5.70;;;4.60;86.20;;;;;;4959505;28;20785;-87
2021/04/28 01:54:09;;;;;;;10.83;5.23;;;4.60;86.20;;;;;;4959184;28;21059;-86
2021/04/28 01:56:36;;;;;;;9.80;5.50;;;4.60;86.20;;;;;;4959640;28;20812;-85
2021/04/28 01:59:02;;;;;;;8.97;5.10;;;4.60;86.40;;;;;;4959385;28;20939;-86
2021/04/28 02:01:28;;;;;;;10.40;5.20;;;4.50;86.40;;;;;;4960031;28;20422;-88
2021/04/28 02:03:54;;;;;;;7.00;5.00;;;4.50;86.60;;;;;;4959781;28;20444;-86
2021/04/28 02:06:20;;;;;;;9.93;4.73;;;4.50;86.70;;;;;;4959755;28;20197;-86
2021/04/28 02:08:46;;;;;;;8.43;5.10;;;4.50;86.80;;;;;;4976699;28;20895;-85
2021/04/28 02:11:12;;;;;;;8.67;5.10;;;4.50;86.90;;;;;;4959913;28;20224;-88
2021/04/28 02:26:03;;;;;;;10.40;5.40;;;4.30;87.40;;;;;;5092848;23;20493;-86
2021/04/28 02:28:32;;;;;;;8.20;4.93;;;4.30;87.70;;;;;;4960359;28;20831;-86
2021/04/28 02:30:58;;;;;;;11.77;4.90;;;4.20;87.80;;;;;;4977971;28;20464;-87
2021/04/28 02:33:24;;;;;;;10.87;5.30;;;4.20;87.80;;;;;;4959057;28;20422;-86
2021/04/28 02:35:52;;;;;;;10.67;5.67;;;4.20;87.90;;;;;;4941381;29;20780;-86
2021/04/28 02:38:52;;;;;;;8.80;4.77;;;4.20;88.00;;;;;;4941461;29;20423;-86
2021/04/28 02:41:18;;;;;;;11.27;5.30;;;4.10;88.10;;;;;;4936833;29;20515;-86
2021/04/28 02:43:44;;;;;;;8.37;4.63;;;4.10;88.10;;;;;;4941451;29;20466;-86
2021/04/28 02:46:13;;;;;;;11.83;4.80;;;4.10;88.30;;;;;;4940360;29;20426;-86
2021/04/28 02:48:40;;;;;;;9.30;5.63;;;4.10;88.30;;;;;;4940267;29;20593;-86
2021/04/28 02:51:06;;;;;;;9.50;5.10;;;4.00;88.30;;;;;;4957294;29;20409;-86
2021/04/28 02:53:34;;;;;;;7.40;4.80;;;4.00;88.60;;;;;;4940064;28;20407;-86
2021/04/28 02:55:59;;;;;;;11.20;5.87;;;4.00;88.60;;;;;;4940350;29;20447;-86
2021/04/28 02:58:27;;;;;;;11.00;5.33;;;4.00;88.60;;;;;;4940016;29;20481;-86
2021/04/28 03:00:54;;;;;;;10.10;5.67;;;4.00;88.80;;;;;;4940074;29;20423;-86
2021/04/28 03:03:21;;;;;;;10.77;5.30;;;4.00;88.80;;;;;;4939737;28;20423;-85
2021/04/28 03:05:53;;;;;;;8.60;5.10;;;3.90;88.90;;;;;;4939799;29;20419;-86
2021/04/28 03:08:19;;;;;;;9.90;5.47;;;3.90;89.00;;;;;;4940353;29;20545;-86
2021/04/28 03:10:47;;;;;;;8.50;5.10;;;3.90;89.10;;;;;;4939145;29;20415;-86
2021/04/28 03:13:14;;;;;;;11.77;6.23;;;3.90;89.10;;;;;;4956020;28;20403;-86
2021/04/28 03:15:40;;;;;;;12.30;4.90;;;3.80;89.30;;;;;;4939037;29;20427;-88
2021/04/28 03:18:06;;;;;;;9.27;5.97;;;3.80;89.20;;;;;;4950602;28;20422;-86
2021/04/28 03:20:33;;;;;;;10.43;5.67;;;3.80;89.30;;;;;;4951977;29;20680;-88
2021/04/28 03:22:59;;;;;;;11.03;5.87;;;3.80;89.30;;;;;;4952859;29;20425;-86
2021/04/28 03:25:24;;;;;;;9.00;5.47;;;3.80;89.30;;;;;;4952640;29;20560;-88
2021/04/28 03:27:50;;;;;;;13.43;5.43;;;3.80;89.50;;;;;;4950582;29;20222;-88
2021/04/28 03:30:16;;;;;;;9.43;5.37;;;3.70;89.50;;;;;;4953926;29;20179;-89
2021/04/28 03:32:42;;;;;;;10.97;6.17;;;3.70;89.60;;;;;;4972656;29;20234;-89
2021/04/28 03:35:08;;;;;;;10.70;5.60;;;3.70;89.80;;;;;;4955456;29;20447;-88
2021/04/28 03:37:34;;;;;;;12.13;5.67;;;3.70;89.90;;;;;;4945907;29;20673;-89
2021/04/28 03:40:00;;;;;;;10.70;5.80;;;3.60;90.20;;;;;;4944358;29;20446;-87
2021/04/28 03:42:25;;;;;;;9.03;5.67;;;3.60;90.30;;;;;;4945554;29;20183;-88
2021/04/28 03:44:52;;;;;;;10.10;5.83;;;3.50;90.50;;;;;;4982878;23;20230;-87
2021/04/28 03:47:19;;;;;;;14.40;5.53;;;3.50;90.60;;;;;;4959433;28;20210;-87
2021/04/28 03:49:45;;;;;;;16.37;6.77;;;3.50;90.60;;;;;;4959831;28;20450;-87
2021/04/28 03:52:12;;;;;;;10.17;5.10;;;3.50;90.70;;;;;;4959692;28;20425;-87
2021/04/28 03:54:38;;;;;;;8.93;5.57;;;3.50;90.80;;;;;;4959252;28;20199;-87
2021/04/28 03:57:10;;;;;;;15.97;6.40;;;3.50;90.80;;;;;;4959686;28;20857;-87
2021/04/28 03:59:36;;;;;;;9.17;5.83;;;3.40;90.90;;;;;;4976593;28;20218;-87
2021/04/28 04:02:03;;;;;;;19.03;6.27;;;3.40;90.90;;;;;;4959235;28;20434;-86
2021/04/28 04:04:29;;;;;;;13.37;5.83;;;3.40;90.90;;;;;;4976641;28;20194;-87
2021/04/28 04:06:54;;;;;;;10.80;6.47;;;3.40;91.10;;;;;;4958667;28;20468;-87
2021/04/28 04:09:23;;;;;;;8.90;5.50;;;3.40;91.20;;;;;;4975533;28;20201;-87
2021/04/28 04:11:49;;;;;;;12.00;5.97;;;3.40;91.10;;;;;;4958754;28;20638;-86
2021/04/28 04:14:15;;;;;;;11.43;6.87;;;3.50;91.10;;;;;;4958096;28;20830;-86
2021/04/28 04:16:41;;;;;;;12.13;6.50;;;3.50;91.20;;;;;;4957974;28;20424;-87
2021/04/28 04:19:06;;;;;;;13.40;6.37;;;3.40;91.20;;;;;;4958201;28;20448;-86
2021/04/28 04:21:32;;;;;;;12.17;6.13;;;3.50;91.30;;;;;;4958574;28;20186;-86
2021/04/28 04:23:58;;;;;;;10.10;5.80;;;3.50;91.30;;;;;;4958346;28;20233;-84
2021/04/28 04:26:23;;;;;;;10.17;6.53;;;3.50;91.30;;;;;;4958726;28;20182;-86
2021/04/28 04:28:49;;;;;;;11.93;6.40;;;3.50;91.30;;;;;;4958385;28;20198;-86
2021/04/28 04:31:15;;;;;;;15.60;6.50;;;3.50;91.20;;;;;;4957658;28;20230;-86
2021/04/28 04:33:42;;;;;;;12.33;6.20;;;3.60;91.20;;;;;;4956858;28;20638;-86
2021/04/28 04:36:08;;;;;;;15.40;7.33;;;3.70;91.20;;;;;;4956996;28;20182;-86
2021/04/28 04:38:33;;;;;;;12.63;7.00;;;3.70;91.00;;;;;;4974634;28;20414;-86
2021/04/28 04:40:59;;;;;;;16.30;6.67;;;3.80;91.10;;;;;;4957114;28;20233;-86
2021/04/28 04:43:25;;;;;;;11.97;6.33;;;3.80;91.30;;;;;;4956758;28;20196;-86
2021/04/28 04:45:53;;;;;;;14.03;6.50;;;3.80;91.30;;;;;;4956995;28;20320;-87
2021/04/28 04:48:21;;;;;;;12.47;6.27;;;3.90;91.20;;;;;;4957046;28;20677;-87
2021/04/28 04:50:54;;;;;;;12.13;6.60;;;3.90;91.10;;;;;;4974402;28;20406;-86
2021/04/28 04:53:22;;;;;;;18.83;6.80;;;3.90;91.00;;;;;;4957510;28;20465;-86
2021/04/28 04:55:52;;;;;;;15.23;6.67;;;4.00;91.00;;;;;;4958048;28;20437;-87
2021/04/28 04:58:20;;;;;;;12.40;6.90;;;4.00;90.80;;;;;;4961428;28;20778;-87
2021/04/28 05:00:46;;;;;;;11.10;5.83;;;4.10;90.70;;;;;;4960284;28;20425;-86
2021/04/28 05:03:12;;;;;;;11.00;6.40;;;4.10;90.50;;;;;;4962793;28;20445;-86
2021/04/28 05:05:38;;;;;;;12.13;6.30;;;4.20;90.50;;;;;;4962614;28;20964;-86
2021/04/28 05:08:04;;;;;;;14.87;7.10;;;4.20;90.50;;;;;;4962446;28;20209;-86
2021/04/28 05:10:31;;;;;;;13.63;6.80;;;4.30;90.30;;;;;;4962339;28;20205;-86
2021/04/28 05:12:59;;;;;;;11.50;7.30;;;4.40;90.30;;;;;;4962479;28;20186;-87
2021/04/28 05:15:25;;;;;;;13.37;6.60;;;4.40;90.10;;;;;;4962464;28;20438;-85
2021/04/28 05:18:05;;;;;;;11.63;6.20;;;4.50;90.20;;;;;;4979586;28;20424;-87
2021/04/28 05:20:33;;;;;;;15.50;7.00;;;4.60;90.00;;;;;;4961033;28;20508;-86
2021/04/28 05:23:00;;;;;;;12.63;6.80;;;4.60;89.70;;;;;;4978566;28;20421;-87
2021/04/28 05:25:26;;;;;;;17.23;7.07;;;4.70;89.70;;;;;;4960902;28;20434;-87
2021/04/28 05:27:52;;;;;;;14.37;7.47;;;4.80;89.60;;;;;;4960183;28;20521;-87
2021/04/28 05:30:20;;;;;;;10.97;6.20;;;4.90;89.30;;;;;;4977839;28;20701;-87
2021/04/28 05:32:51;;;;;;;14.47;7.47;;;5.00;89.10;;;;;;4962557;28;20987;-87
2021/04/28 05:35:17;;;;;;;14.30;7.43;;;5.10;89.10;;;;;;4977089;28;20425;-87
2021/04/28 05:37:43;;;;;;;24.03;7.40;;;5.10;88.80;;;;;;4960350;28;20429;-87
2021/04/28 05:40:09;;;;;;;14.47;7.03;;;5.20;88.60;;;;;;4959416;28;20929;-86
2021/04/28 05:42:35;;;;;;;11.10;6.20;;;5.30;88.40;;;;;;4959120;28;20418;-86
2021/04/28 05:45:04;;;;;;;16.57;6.77;;;5.50;88.40;;;;;;4959223;28;20484;-87
2021/04/28 05:47:32;;;;;;;14.30;6.90;;;5.60;88.00;;;;;;4959583;28;20560;-87
2021/04/28 05:49:58;;;;;;;14.43;7.23;;;5.70;87.60;;;;;;4976448;28;20472;-87
2021/04/28 05:52:23;;;;;;;12.70;6.77;;;5.80;87.60;;;;;;4958516;28;20418;-87
2021/04/28 05:54:51;;;;;;;13.20;7.43;;;5.90;87.70;;;;;;4975814;28;20590;-86
2021/04/28 05:57:17;;;;;;;12.00;7.40;;;6.00;87.00;;;;;;4958220;28;20174;-87
2021/04/28 05:59:44;;;;;;;14.20;6.63;;;6.10;86.90;;;;;;4960218;28;20921;-87
2021/04/28 06:02:10;;;;;;;11.47;7.40;;;6.20;87.60;;;;;;4958585;28;20485;-86
2021/04/28 06:04:36;;;;;;;11.50;6.47;;;6.30;87.80;;;;;;4958506;28;20461;-87
2021/04/28 06:07:02;;;;;;;22.60;7.70;;;6.40;87.90;;;;;;4957983;28;20446;-87
2021/04/28 06:09:29;;;;;;;11.87;6.37;;;6.50;87.30;;;;;;4958215;28;20508;-86
2021/04/28 06:11:55;;;;;;;14.27;7.53;;;6.50;87.20;;;;;;4958490;28;20174;-87
2021/04/28 06:14:21;;;;;;;18.13;7.83;;;6.60;87.20;;;;;;4958364;28;20434;-87
2021/04/28 06:16:46;;;;;;;20.93;7.30;;;6.70;87.10;;;;;;4958611;28;20183;-86
2021/04/28 06:19:12;;;;;;;16.53;7.37;;;6.80;87.00;;;;;;4958468;28;20186;-87
2021/04/28 06:21:38;;;;;;;17.90;9.03;;;6.90;86.90;;;;;;4959621;28;20187;-88
2021/04/28 06:24:10;;;;;;;14.40;8.07;;;7.00;86.00;;;;;;4959671;28;20209;-87
2021/04/28 06:26:41;;;;;;;15.70;7.83;;;7.20;85.40;;;;;;4977580;28;20177;-87
2021/04/28 06:29:06;;;;;;;20.73;7.23;;;7.40;85.30;;;;;;4958954;28;20469;-86
2021/04/28 06:31:32;;;;;;;12.43;7.10;;;7.50;84.70;;;;;;4959470;28;20912;-86
2021/04/28 06:33:57;;;;;;;17.90;7.00;;;7.70;84.00;;;;;;4959444;28;20252;-87
2021/04/28 06:36:23;;;;;;;18.97;8.33;;;7.80;84.30;;;;;;4977069;28;20178;-87
2021/04/28 06:38:49;;;;;;;20.33;8.03;;;8.00;84.50;;;;;;4959277;28;20302;-88
2021/04/28 06:41:15;;;;;;;15.23;7.60;;;8.10;84.70;;;;;;4959347;28;20188;-87
2021/04/28 06:43:40;;;;;;;16.73;7.60;;;8.30;84.00;;;;;;4959128;28;20183;-87
2021/04/28 06:46:07;;;;;;;15.77;8.07;;;8.40;83.30;;;;;;4958453;28;20234;-87
2021/04/28 06:48:33;;;;;;;14.07;7.97;;;8.50;83.10;;;;;;4975397;28;20752;-87
2021/04/28 06:51:01;;;;;;;16.60;8.50;;;8.60;82.80;;;;;;4975711;28;20506;-87
2021/04/28 06:53:27;;;;;;;16.30;8.37;;;8.70;82.90;;;;;;4958595;28;20426;-87
2021/04/28 06:55:52;;;;;;;17.40;8.70;;;8.80;82.40;;;;;;4958448;28;20584;-87
2021/04/28 06:58:21;;;;;;;15.10;7.00;;;9.00;82.60;;;;;;4958211;28;20453;-87
2021/04/28 07:00:46;;;;;;;15.73;8.27;;;9.10;82.10;;;;;;4959492;28;20673;-87
2021/04/28 07:03:12;;;;;;;16.13;8.37;;;9.20;81.20;;;;;;4976411;28;20445;-87
2021/04/28 07:05:37;;;;;;;13.90;8.53;;;9.20;80.60;;;;;;4958670;28;20677;-84
2021/04/28 07:08:03;;;;;;;17.47;8.30;;;9.40;81.60;;;;;;4957679;28;20214;-85
2021/04/28 07:10:29;;;;;;;19.27;7.73;;;9.50;82.90;;;;;;4957727;28;20182;-87
2021/04/28 07:12:55;;;;;;;16.97;8.23;;;9.70;81.50;;;;;;4974195;28;20414;-87
2021/04/28 07:15:20;;;;;;;18.20;9.50;;;9.80;80.70;;;;;;4957182;28;20198;-87
2021/04/28 07:17:56;;;;;;;14.07;8.03;;;10.00;79.70;;;;;;4974764;28;20282;-87
2021/04/28 07:20:25;;;;;;;20.30;8.83;;;10.10;79.10;;;;;;4957620;28;20186;-87
2021/04/28 07:22:51;;;;;;;16.37;9.20;;;10.20;80.10;;;;;;4957777;28;20924;-87
2021/04/28 07:25:17;;;;;;;17.23;9.37;;;10.40;80.10;;;;;;4975113;28;20438;-88
2021/04/28 07:27:43;;;;;;;15.40;9.00;;;10.60;79.00;;;;;;4957156;28;20472;-87
2021/04/28 07:30:12;;;;;;;18.20;8.20;;;10.70;78.70;;;;;;4974599;28;20262;-87
2021/04/28 07:32:39;;;;;;;20.47;9.33;;;10.80;78.80;;;;;;4957343;28;20422;-86
2021/04/28 07:35:09;;;;;;;23.80;9.57;;;11.00;78.50;;;;;;4974580;28;20461;-87
2021/04/28 07:37:35;;;;;;;18.53;10.33;;;11.00;78.90;;;;;;4957383;28;20430;-87
2021/04/28 07:40:01;;;;;;;21.10;9.70;;;11.20;78.10;;;;;;4958057;28;20426;-87
2021/04/28 07:42:29;;;;;;;20.70;10.47;;;11.30;78.10;;;;;;4975096;28;20637;-87
2021/04/28 07:44:54;;;;;;;25.20;9.87;;;11.50;79.20;;;;;;4957521;28;20242;-87
2021/04/28 07:47:22;;;;;;;15.27;9.07;;;11.60;77.30;;;;;;4958035;28;20433;-86
2021/04/28 07:49:55;;;;;;;16.10;9.40;;;11.70;77.80;;;;;;4957907;28;20179;-87
2021/04/28 07:52:21;;;;;;;18.93;9.90;;;11.90;77.10;;;;;;4958287;28;20517;-85
2021/04/28 07:54:47;;;;;;;19.00;9.80;;;12.00;77.60;;;;;;4957923;28;20466;-87
2021/04/28 07:57:13;;;;;;;20.10;10.83;;;12.10;77.10;;;;;;4958418;28;20201;-88
2021/04/28 07:59:39;;;;;;;17.90;10.80;;;12.30;78.00;;;;;;4957906;28;20414;-88
2021/04/28 08:02:05;;;;;;;16.30;9.30;;;12.40;78.10;;;;;;4957658;28;20421;-86
2021/04/28 08:04:30;;;;;;;19.60;9.43;;;12.60;77.30;;;;;;4957284;28;20198;-87
2021/04/28 08:06:56;;;;;;;16.93;10.63;;;12.70;76.30;;;;;;4956958;28;20265;-87
2021/04/28 08:09:21;;;;;;;17.43;9.30;;;12.70;76.40;;;;;;4957379;28;20212;-87
2021/04/28 08:11:47;;;;;;;24.40;10.70;;;12.80;76.70;;;;;;4957140;28;20206;-87
2021/04/28 08:14:12;;;;;;;21.13;10.93;;;12.90;76.70;;;;;;4956755;28;20234;-87
2021/04/28 08:16:43;;;;;;;18.23;10.10;;;13.00;76.00;;;;;;4956703;28;20177;-86
2021/04/28 08:19:08;;;;;;;22.33;10.47;;;13.00;76.50;;;;;;4957115;28;20190;-87
2021/04/28 08:21:34;;;;;;;23.30;10.20;;;13.20;76.80;;;;;;4957194;28;20410;-87
2021/04/28 08:24:02;;;;;;;23.33;10.10;;;13.30;76.60;;;;;;4957389;28;20198;-87
2021/04/28 08:26:28;;;;;;;24.13;11.13;;;13.50;77.10;;;;;;4956698;28;20560;-87
2021/04/28 08:32:17;;;;;;;19.73;10.20;;;13.80;76.10;;;;;;4985931;28;20236;-85
2021/04/28 08:34:43;;;;;;;18.07;10.23;;;13.90;74.70;;;;;;4984766;28;20897;-87
2021/04/28 08:37:10;;;;;;;18.00;11.40;;;14.00;74.30;;;;;;4986716;28;20417;-87
2021/04/28 08:39:36;;;;;;;17.33;10.57;;;14.00;73.60;;;;;;4982574;28;20184;-88
2021/04/28 08:42:05;;;;;;;18.30;10.60;;;14.10;75.20;;;;;;4982301;28;20432;-87
2021/04/28 08:44:31;;;;;;;18.80;10.60;;;14.20;74.40;;;;;;5000049;28;20221;-85
2021/04/28 08:47:04;;;;;;;20.60;11.20;;;14.40;74.10;;;;;;4993160;28;20425;-87
2021/04/28 08:49:30;;;;;;;18.53;10.60;;;14.50;74.80;;;;;;4979440;28;20461;-87
2021/04/28 08:51:55;;;;;;;19.70;11.50;;;14.50;73.40;;;;;;4981186;28;20835;-87
2021/04/28 08:54:22;;;;;;;20.57;11.53;;;14.50;73.40;;;;;;4999926;28;20193;-88
2021/04/28 08:56:52;;;;;;;17.93;11.17;;;14.60;74.60;;;;;;4983945;28;20645;-88
2021/04/28 08:59:19;;;;;;;19.17;10.80;;;14.80;74.60;;;;;;5013126;28;20413;-89
2021/04/28 09:01:45;;;;;;;20.23;11.90;;;14.90;74.30;;;;;;5000010;28;20466;-87
2021/04/28 09:04:24;;;;;;;20.93;12.90;;;15.00;72.90;;;;;;4982823;28;20523;-87
2021/04/28 09:06:51;;;;;;;25.67;13.20;;;15.10;72.40;;;;;;4982982;28;20444;-87
2021/04/28 09:09:19;;;;;;;22.03;11.37;;;15.30;73.90;;;;;;4982967;28;20482;-87
2021/04/28 09:11:52;;;;;;;18.80;11.30;;;15.50;72.70;;;;;;4982946;28;20436;-87
2021/04/28 09:14:22;;;;;;;30.40;13.07;;;15.70;73.00;;;;;;4983269;28;20437;-88
2021/04/28 09:17:06;;;;;;;22.40;13.00;;;15.80;73.30;;;;;;5000416;28;20847;-87
2021/04/28 09:19:39;;;;;;;21.97;11.90;;;15.90;73.40;;;;;;4982116;28;20421;-87
2021/04/28 09:22:11;;;;;;;22.83;12.60;;;16.00;73.40;;;;;;4982738;28;20789;-87
2021/04/28 09:24:46;;;;;;;25.00;11.90;;;15.90;72.40;;;;;;4981821;28;20448;-87
2021/04/28 09:27:35;;;;;;;22.50;11.93;;;16.10;74.30;;;;;;4981956;28;20428;-87
2021/04/28 09:30:05;;;;;;;24.13;12.87;;;16.30;73.20;;;;;;4982199;28;20440;-87
2021/04/28 09:32:38;;;;;;;24.97;13.07;;;16.30;71.80;;;;;;4981818;28;20409;-87
2021/04/28 09:35:23;;;;;;;22.60;13.23;;;16.40;73.00;;;;;;4983984;28;20981;-86
2021/04/28 09:37:54;;;;;;;22.70;12.63;;;16.60;72.30;;;;;;4982208;28;20412;-88
2021/04/28 09:40:22;;;;;;;19.93;12.63;;;16.70;72.40;;;;;;4981723;28;20449;-88
2021/04/28 09:43:00;;;;;;;27.80;13.57;;;16.80;72.20;;;;;;4978459;28;20447;-87
2021/04/28 09:45:40;;;;;;;23.23;12.77;;;16.80;71.20;;;;;;4996954;23;20581;-77
2021/04/28 09:48:09;;;;;;;27.17;13.83;;;16.80;72.20;;;;;;4958234;28;20465;-76
2021/04/28 09:50:34;;;;;;;21.40;12.53;;;16.70;72.00;;;;;;4957954;28;20495;-76
2021/04/28 09:53:00;;;;;;;22.23;12.37;;;16.70;72.90;;;;;;4957643;28;20422;-79
2021/04/28 09:55:26;;;;;;;20.87;12.93;;;16.70;72.50;;;;;;4957723;28;20185;-79
2021/04/28 09:57:52;;;;;;;22.10;13.63;;;16.60;71.50;;;;;;4957632;28;20240;-78
2021/04/28 10:00:25;;;;;;;24.33;12.80;;;16.50;72.50;;;;;;4957518;28;20413;-78
2021/04/28 10:02:53;;;;;;;24.53;14.20;;;16.60;72.90;;;;;;4957948;28;20425;-79
2021/04/28 10:05:25;;;;;;;23.60;12.30;;;16.70;71.90;;;;;;4957289;28;20508;-78
2021/04/28 10:08:12;;;;;;;26.50;12.50;;;16.60;71.90;;;;;;4957402;28;20488;-78
2021/04/28 10:10:42;;;;;;;21.33;12.30;;;16.70;72.50;;;;;;4956631;28;20446;-78
2021/04/28 10:13:07;;;;;;;24.17;12.30;;;16.80;71.90;;;;;;4957118;28;20989;-78
2021/04/28 10:15:34;;;;;;;22.80;12.90;;;17.00;72.40;;;;;;4957803;28;20538;-78
2021/04/28 10:18:05;;;;;;;20.97;12.17;;;17.00;71.40;;;;;;4957350;28;20178;-76
2021/04/28 10:20:35;;;;;;;26.10;13.70;;;16.90;71.80;;;;;;4974598;28;20488;-77
2021/04/28 10:23:06;;;;;;;23.60;12.90;;;16.90;72.40;;;;;;4974256;28;20924;-76
2021/04/28 10:25:33;;;;;;;21.40;12.30;;;16.90;72.30;;;;;;4957707;28;20918;-76
2021/04/28 10:28:06;;;;;;;24.80;13.33;;;17.10;73.70;;;;;;4974504;28;20493;-77
2021/04/28 10:30:34;;;;;;;21.43;13.60;;;17.20;71.70;;;;;;4956814;28;20417;-76
2021/04/28 10:33:02;;;;;;;22.03;12.10;;;17.20;71.60;;;;;;4957359;28;20996;-77
2021/04/28 10:35:29;;;;;;;24.77;13.20;;;17.40;72.70;;;;;;4957133;28;20459;-76
2021/04/28 10:37:56;;;;;;;21.63;12.50;;;17.40;71.70;;;;;;4956920;28;20417;-76
2021/04/28 10:40:23;;;;;;;25.90;13.20;;;17.60;71.60;;;;;;4957750;28;20425;-76
2021/04/28 10:42:50;;;;;;;24.30;13.90;;;17.80;71.90;;;;;;4957889;28;20827;-77
2021/04/28 10:45:19;;;;;;;32.60;13.47;;;18.00;71.30;;;;;;4957873;28;20498;-77
2021/04/28 10:47:51;;;;;;;27.23;13.97;;;18.10;71.50;;;;;;4974963;28;20593;-76
2021/04/28 10:50:24;;;;;;;23.93;13.77;;;18.00;69.60;;;;;;4956753;28;20414;-76
2021/04/28 10:53:01;;;;;;;20.33;12.20;;;17.80;71.80;;;;;;4956493;28;20465;-76
2021/04/28 10:55:42;;;;;;;33.30;14.47;;;17.90;73.30;;;;;;4956880;28;20425;-77
2021/04/28 10:58:23;;;;;;;24.87;13.80;;;18.10;71.60;;;;;;4956394;28;20509;-77
2021/04/28 11:00:49;;;;;;;22.33;13.10;;;18.10;71.20;;;;;;4956892;28;20465;-77
2021/04/28 11:03:34;;;;;;;30.17;13.57;;;18.10;71.70;;;;;;4973616;28;20418;-76
2021/04/28 11:06:21;;;;;;;22.53;12.30;;;18.30;70.80;;;;;;4956534;28;20544;-77
2021/04/28 11:09:07;;;;;;;22.00;12.73;;;18.30;70.80;;;;;;4956273;28;20556;-76
2021/04/28 11:11:38;;;;;;;24.67;13.73;;;18.40;71.40;;;;;;4957045;28;20472;-76
2021/04/28 11:14:17;;;;;;;27.37;14.40;;;18.50;70.90;;;;;;4956665;28;20406;-76
2021/04/28 11:16:54;;;;;;;19.17;10.20;;;18.70;71.80;;;;;;4973758;28;20498;-76
2021/04/28 11:19:20;;;;;;;18.70;10.67;;;19.00;69.80;;;;;;4956129;28;20413;-77
2021/04/28 11:21:47;;;;;;;17.53;10.53;;;19.20;69.30;;;;;;4955580;28;20504;-76
2021/04/28 11:24:13;;;;;;;21.03;11.43;;;19.30;68.40;;;;;;4973972;28;20278;-76
2021/04/28 11:26:44;;;;;;;23.20;12.87;;;19.40;68.80;;;;;;4956479;28;20450;-77
2021/04/28 11:29:10;;;;;;;23.07;13.33;;;19.50;68.20;;;;;;4955611;28;20497;-77
2021/04/28 11:31:48;;;;;;;23.60;14.70;;;19.40;68.30;;;;;;4973540;28;20538;-77
2021/04/28 11:34:26;;;;;;;30.90;13.03;;;19.60;68.70;;;;;;4972936;28;20249;-77
2021/04/28 11:36:57;;;;;;;18.90;11.77;;;19.60;68.70;;;;;;4956378;28;20413;-77
2021/04/28 11:39:38;;;;;;;17.77;11.20;;;19.70;67.90;;;;;;4955858;28;20418;-77
2021/04/28 11:42:06;;;;;;;23.60;14.27;;;19.80;67.10;;;;;;4972727;28;20512;-76
2021/04/28 11:44:32;;;;;;;25.77;14.53;;;19.70;67.00;;;;;;4955856;28;20410;-77
2021/04/28 11:47:12;;;;;;;23.53;14.80;;;19.60;68.00;;;;;;4972954;28;20524;-77
2021/04/28 11:49:47;;;;;;;23.90;14.43;;;19.90;69.00;;;;;;4955376;28;20497;-77
2021/04/28 11:52:14;;;;;;;25.90;13.60;;;19.90;68.70;;;;;;4955756;28;20442;-76
2021/04/28 11:54:44;;;;;;;22.13;12.13;;;20.10;69.80;;;;;;4955413;28;20422;-77
2021/04/28 11:57:11;;;;;;;20.80;12.30;;;20.30;67.10;;;;;;4955496;28;20481;-76
2021/04/28 11:59:38;;;;;;;21.70;12.97;;;;;;;;;;4956048;28;20433;-76
2021/04/28 12:02:09;;;;;;;27.30;12.30;;;20.50;65.00;;;;;;4972553;28;20948;-76
2021/04/28 12:04:38;;;;;;;31.43;14.23;;;20.50;66.00;;;;;;4955278;28;20418;-76
2021/04/28 12:07:09;;;;;;;25.20;12.50;;;20.50;63.80;;;;;;4955244;28;20409;-76
2021/04/28 12:09:47;;;;;;;23.63;12.60;;;20.60;65.40;;;;;;4955085;28;20461;-77
2021/04/28 12:12:23;;;;;;;23.00;14.93;;;20.80;66.10;;;;;;4955246;28;20944;-76
2021/04/28 12:15:13;;;;;;;29.50;15.20;;;20.90;67.10;;;;;;4956156;28;20432;-77
2021/04/28 12:17:47;;;;;;;19.93;12.90;;;20.80;65.80;;;;;;4955028;28;20414;-76
2021/04/28 12:20:15;;;;;;;21.77;11.40;;;20.80;66.30;;;;;;4955734;28;20806;-76
2021/04/28 12:22:41;;;;;;;18.70;11.03;;;20.80;64.70;;;;;;4956324;28;20420;-77
2021/04/28 12:25:10;;;;;;;16.13;10.93;;;21.10;64.40;;;;;;4955250;28;20516;-77
2021/04/28 12:27:38;;;;;;;16.97;10.47;;;21.20;62.60;;;;;;4972798;28;20457;-76
2021/04/28 12:30:19;;;;;;;17.77;10.13;;;21.20;63.50;;;;;;4955319;28;20444;-76
2021/04/28 12:32:59;;;;;;;16.23;10.60;;;21.40;62.80;;;;;;4972819;28;20827;-77
2021/04/28 12:35:26;;;;;;;17.07;10.80;;;21.60;62.00;;;;;;4955614;28;20471;-76
2021/04/28 12:38:13;;;;;;;24.17;10.93;;;21.70;62.50;;;;;;4954754;28;20424;-77
2021/04/28 12:40:58;;;;;;;16.30;10.10;;;21.70;60.80;;;;;;4954907;28;20445;-76
2021/04/28 12:43:27;;;;;;;17.60;11.40;;;21.60;60.00;;;;;;4972747;28;20418;-77
2021/04/28 12:46:10;;;;;;;17.63;10.10;;;21.50;62.60;;;;;;4954618;28;20474;-77
2021/04/28 12:49:04;;;;;;;16.50;10.57;;;21.50;58.60;;;;;;4954748;28;20453;-76
2021/04/28 12:51:32;;;;;;;17.83;10.50;;;21.40;59.60;;;;;;4954696;28;20438;-77
2021/04/28 12:53:58;;;;;;;17.83;12.23;;;21.70;60.10;;;;;;4955038;28;20433;-77
2021/04/28 12:56:40;;;;;;;17.90;10.50;;;21.80;59.40;;;;;;4955043;28;20441;-77
2021/04/28 12:59:23;;;;;;;18.00;11.83;;;22.20;62.20;;;;;;4954419;28;20426;-77
2021/04/28 13:02:18;;;;;;;16.33;11.13;;;22.40;61.40;;;;;;4954709;28;20944;-77
2021/04/28 13:04:49;;;;;;;18.27;10.60;;;22.50;60.10;;;;;;4953209;28;20457;-77